createdAt,value
2023-05-06T05:00:50.209Z,20.92
2023-05-06T05:03:37.173Z,19.40
2023-05-06T05:06:24.745Z,19.42
2023-05-06T05:09:11.959Z,19.80
2023-05-06T05:12:02.352Z,18.77
2023-05-06T05:14:51.653Z,18.52
2023-05-06T07:58:50.948Z,14.57
2023-05-06T08:01:37.252Z,12.73
2023-05-06T08:04:23.544Z,12.93
2023-05-06T08:07:09.918Z,13.02
2023-05-06T08:09:56.517Z,14.38
2023-05-06T08:12:42.919Z,14.52
2023-05-06T08:15:30.743Z,14.85
2023-05-06T08:18:22.446Z,14.73
2023-05-06T08:21:10.058Z,15.15
2023-05-06T08:23:55.961Z,15.65
2023-05-06T08:26:42.569Z,16.10
2023-05-06T08:29:28.866Z,15.27
2023-05-06T08:32:16.669Z,15.38
2023-05-06T08:35:02.946Z,15.55
2023-05-06T08:37:49.373Z,15.18
2023-05-06T08:40:42.787Z,15.15
2023-05-06T08:43:33.289Z,16.00
2023-05-06T08:46:19.508Z,16.63
2023-05-06T08:49:07.261Z,16.90
2023-05-06T08:51:53.720Z,17.13
2023-05-06T08:54:40.686Z,16.15
2023-05-06T08:57:27.009Z,17.52
2023-05-06T09:00:15.044Z,18.75
2023-05-06T09:03:01.698Z,17.85
2023-05-06T09:05:49.494Z,17.70
2023-05-06T09:08:36.140Z,16.50
2023-05-06T09:11:24.215Z,17.10
2023-05-06T09:14:12.415Z,16.70
2023-05-06T09:16:59.213Z,15.85
2023-05-06T09:19:45.531Z,16.63
2023-05-06T09:22:33.329Z,16.27
2023-05-06T09:25:20.108Z,16.27
2023-05-06T09:28:07.401Z,16.35
2023-05-06T09:30:54.161Z,16.60
2023-05-06T09:33:41.659Z,15.25
2023-05-06T09:36:29.528Z,15.40
2023-05-06T09:39:18.390Z,15.15
2023-05-06T09:42:04.765Z,14.07
2023-05-06T09:44:52.980Z,13.75
2023-05-06T09:47:39.360Z,14.13
2023-05-06T09:50:26.753Z,14.55
2023-05-06T09:53:14.040Z,12.45
2023-05-06T09:56:01.973Z,12.57
2023-05-06T09:58:49.280Z,13.20
2023-05-06T10:01:37.524Z,12.63
2023-05-06T10:04:27.449Z,11.13
2023-05-06T10:07:13.778Z,11.50
2023-05-06T10:10:01.242Z,12.20
2023-05-06T10:12:50.119Z,12.30
2023-05-06T14:18:41.249Z,6.73
2023-05-06T14:21:29.063Z,6.90
2023-05-06T14:24:15.392Z,6.30
2023-05-06T14:27:01.848Z,5.15
2023-05-06T14:29:48.605Z,5.60
2023-05-06T14:32:35.130Z,4.97
2023-05-06T14:35:22.006Z,6.20
2023-05-06T14:38:09.650Z,13.45
2023-05-06T14:40:57.098Z,4.90
2023-05-06T14:43:45.094Z,4.57
2023-05-06T14:46:31.570Z,4.00
2023-05-06T14:49:17.872Z,3.55
2023-05-06T14:52:04.290Z,3.33
2023-05-06T14:54:52.130Z,4.03
2023-05-06T14:57:38.264Z,3.65
2023-05-06T15:06:44.620Z,3.47
2023-05-06T15:09:31.515Z,2.58
2023-05-06T15:12:21.082Z,2.00
2023-05-06T15:15:09.266Z,2.35
2023-05-06T15:17:55.738Z,2.95
2023-05-06T15:20:42.084Z,2.38
2023-05-06T15:23:28.443Z,1.98
2023-05-06T15:26:14.838Z,2.40
2023-05-06T15:29:02.757Z,1.90
2023-05-06T15:31:49.616Z,2.35
2023-05-06T15:34:36.085Z,2.22
2023-05-06T15:37:22.392Z,2.08
2023-05-06T15:40:11.852Z,2.50
2023-05-06T15:42:59.387Z,2.92
2023-05-06T15:45:47.167Z,2.45
2023-05-06T15:48:34.538Z,2.53
2023-05-06T15:51:21.284Z,2.45
2023-05-06T15:54:34.739Z,2.30
2023-05-06T15:57:23.251Z,2.80
2023-05-06T16:00:10.705Z,2.75
2023-05-06T16:02:59.148Z,2.50
2023-05-06T16:05:46.090Z,2.78
2023-05-06T16:08:33.853Z,3.08
2023-05-06T16:11:20.716Z,2.78
2023-05-06T16:14:07.428Z,2.85
2023-05-06T16:56:50.806Z,2.75
2023-05-06T16:59:37.862Z,2.75
2023-05-06T17:02:24.177Z,3.28
2023-05-06T17:05:10.892Z,2.40
2023-05-06T17:10:44.552Z,2.70
2023-05-06T17:13:32.405Z,3.00
2023-05-06T17:16:18.586Z,3.05
2023-05-06T17:19:05.019Z,3.78
2023-05-06T17:21:51.296Z,3.72
2023-05-06T17:24:37.570Z,4.20
2023-05-06T17:27:23.767Z,5.18
2023-05-06T17:30:12.476Z,6.03
2023-05-06T17:32:59.232Z,7.78
2023-05-06T17:35:45.980Z,9.63
2023-05-06T17:38:32.507Z,12.38
2023-05-06T17:41:18.943Z,11.60
2023-05-06T17:44:07.302Z,12.40
2023-05-06T17:46:54.995Z,13.30
2023-05-06T17:49:41.328Z,14.05
2023-05-06T17:52:27.577Z,14.38
2023-05-06T17:55:17.486Z,15.20
2023-05-06T17:58:03.941Z,14.20
2023-05-06T18:00:50.480Z,15.23
2023-05-06T18:03:40.273Z,16.70
2023-05-06T18:06:26.965Z,18.30
2023-05-06T18:09:13.357Z,18.55
2023-05-06T18:11:59.701Z,18.65
2023-05-06T18:14:45.956Z,18.15
2023-05-06T18:17:32.509Z,17.20
2023-05-06T18:20:20.211Z,18.58
2023-05-06T18:23:08.737Z,17.02
2023-05-06T18:25:55.085Z,18.42
2023-05-06T18:28:42.001Z,17.60
2023-05-06T18:31:28.588Z,17.88
2023-05-06T18:34:15.165Z,16.55
2023-05-06T18:37:03.677Z,17.13
2023-05-06T18:39:50.382Z,15.77
2023-05-06T18:42:37.565Z,15.95
2023-05-06T18:45:24.488Z,16.70
2023-05-06T18:48:11.545Z,15.45
2023-05-06T18:51:09.994Z,15.05
2023-05-06T18:53:57.513Z,14.60
2023-05-06T18:56:43.887Z,14.63
2023-05-06T18:59:33.557Z,13.27
2023-05-06T19:47:50.311Z,13.75
2023-05-06T19:50:36.835Z,14.70
2023-05-06T19:53:23.933Z,14.38
2023-05-06T19:56:10.757Z,14.93
2023-05-06T19:58:57.307Z,13.52
2023-05-06T22:00:12.613Z,22.00
2023-05-06T22:03:01.434Z,21.38
2023-05-06T22:05:48.187Z,21.20
2023-05-06T22:08:34.451Z,20.20
2023-05-06T22:11:22.555Z,21.23
2023-05-06T22:14:09.473Z,21.38
